Time;durP1;ratioP1;P1;durP2;ratioP2;P2;SDS_P1;SDS_P2;PMS_P1;PMS_P2;Temp;Humidity;BMP_temperature;BMP_pressure;BME280_temperature;BME280_humidity;BME280_pressure;Samples;Min_cycle;Max_cycle;Signal;HPM_P1;HPM_P2
2023/08/04 00:00:09;;;;;;;1.83;0.82;;;12.90;99.90;;;;;;4950711;29;20046;-78
2023/08/04 00:02:36;;;;;;;4.28;0.57;;;12.90;99.90;;;;;;4937700;29;20024;-78
2023/08/04 00:05:05;;;;;;;1.10;0.60;;;12.80;99.90;;;;;;4952778;29;20098;-79
2023/08/04 00:07:31;;;;;;;0.60;0.52;;;12.70;99.90;;;;;;4952618;29;20024;-78
2023/08/04 00:09:56;;;;;;;7.70;1.48;;;12.60;99.90;;;;;;4937520;29;20023;-78
2023/08/04 00:12:23;;;;;;;0.73;0.70;;;12.60;99.90;;;;;;4935531;29;20031;-78
2023/08/04 00:14:49;;;;;;;0.80;0.65;;;12.60;99.90;;;;;;4949422;29;20076;-78
2023/08/04 00:17:15;;;;;;;2.67;0.47;;;12.50;99.90;;;;;;4935035;29;20044;-78
2023/08/04 00:19:41;;;;;;;0.35;0.35;;;12.40;99.90;;;;;;4950651;29;20429;-78
2023/08/04 00:22:07;;;;;;;2.40;0.45;;;12.50;99.90;;;;;;4950049;29;20118;-78
2023/08/04 00:24:33;;;;;;;1.60;0.65;;;12.30;99.90;;;;;;4949209;28;20111;-78
2023/08/04 00:27:00;;;;;;;0.50;0.50;;;12.30;99.90;;;;;;4935383;29;20119;-78
2023/08/04 00:29:27;;;;;;;0.60;0.60;;;12.30;99.90;;;;;;4950501;28;20054;-78
2023/08/04 00:31:52;;;;;;;0.63;0.63;;;12.20;99.90;;;;;;4933718;28;20064;-78
2023/08/04 00:34:18;;;;;;;0.80;0.50;;;12.20;99.90;;;;;;4934675;29;20089;-77
2023/08/04 00:36:45;;;;;;;0.95;0.95;;;12.20;99.90;;;;;;4949571;29;20031;-78
2023/08/04 00:39:12;;;;;;;0.95;0.65;;;12.20;99.90;;;;;;4949830;29;20036;-78
2023/08/04 00:41:37;;;;;;;1.80;1.13;;;12.20;99.90;;;;;;4949487;29;20071;-78
2023/08/04 00:44:03;;;;;;;3.80;0.55;;;12.30;99.90;;;;;;4932328;29;20068;-78
2023/08/04 00:46:32;;;;;;;0.90;0.40;;;12.40;99.90;;;;;;4948257;29;20028;-78
2023/08/04 00:48:59;;;;;;;0.75;0.70;;;12.50;99.90;;;;;;4932917;29;20030;-78
2023/08/04 00:51:26;;;;;;;1.23;0.60;;;12.50;99.90;;;;;;4947021;29;20148;-78
2023/08/04 00:53:52;;;;;;;0.40;0.40;;;12.50;99.90;;;;;;4931812;29;20179;-78
2023/08/04 00:56:18;;;;;;;1.13;0.70;;;12.50;99.90;;;;;;4947552;29;20048;-78
2023/08/04 00:58:44;;;;;;;3.10;0.70;;;12.60;99.90;;;;;;4947917;29;20043;-78
2023/08/04 01:01:10;;;;;;;2.00;0.52;;;12.50;99.90;;;;;;4934562;29;20043;-79
2023/08/04 01:03:38;;;;;;;1.77;0.50;;;12.50;99.90;;;;;;4949735;29;20036;-78
2023/08/04 01:06:25;;;;;;;1.33;0.60;;;12.60;99.90;;;;;;4949983;29;20459;-78
2023/08/04 01:09:23;;;;;;;1.50;0.75;;;12.80;99.90;;;;;;4936015;29;20024;-78
2023/08/04 01:12:08;;;;;;;0.70;0.40;;;12.80;99.90;;;;;;4935646;29;20055;-78
2023/08/04 01:14:35;;;;;;;2.03;1.05;;;13.00;99.90;;;;;;4951002;29;20023;-78
2023/08/04 01:17:21;;;;;;;2.90;0.77;;;13.10;99.90;;;;;;4950917;28;20448;-78
2023/08/04 01:19:47;;;;;;;0.77;0.52;;;13.30;99.90;;;;;;4950200;29;20034;-78
2023/08/04 01:22:13;;;;;;;3.40;0.95;;;13.40;99.90;;;;;;4933935;29;20035;-78
2023/08/04 01:24:38;;;;;;;2.40;0.95;;;13.50;99.90;;;;;;4951162;29;20436;-78
2023/08/04 01:27:05;;;;;;;1.77;0.55;;;13.50;99.90;;;;;;4952110;29;20027;-78
2023/08/04 01:29:34;;;;;;;2.25;1.10;;;13.60;99.90;;;;;;4935865;29;20024;-78
2023/08/04 01:32:06;;;;;;;0.85;0.70;;;13.60;99.90;;;;;;4933790;29;20031;-78
2023/08/04 01:34:32;;;;;;;1.23;0.60;;;13.60;99.90;;;;;;4950281;28;20067;-78
2023/08/04 01:36:58;;;;;;;0.35;0.35;;;13.70;99.90;;;;;;4934756;29;20155;-79
2023/08/04 01:39:25;;;;;;;1.27;1.13;;;13.80;99.90;;;;;;4949656;29;20131;-79
2023/08/04 01:41:51;;;;;;;1.60;1.00;;;13.80;99.90;;;;;;4935096;29;20044;-79
2023/08/04 01:44:18;;;;;;;0.65;0.57;;;13.80;99.90;;;;;;4948915;28;20028;-79
2023/08/04 01:46:43;;;;;;;2.25;0.60;;;13.80;99.90;;;;;;4949672;29;20499;-78
2023/08/04 01:49:09;;;;;;;2.53;0.63;;;13.90;99.90;;;;;;4935925;29;20039;-78
2023/08/04 01:51:36;;;;;;;0.75;0.50;;;13.70;99.90;;;;;;4935792;29;20037;-78
2023/08/04 01:54:02;;;;;;;3.10;1.08;;;13.80;99.90;;;;;;4935273;29;20076;-78
2023/08/04 01:56:31;;;;;;;3.45;0.98;;;13.80;99.90;;;;;;4949349;29;20047;-78
2023/08/04 01:58:56;;;;;;;1.50;0.95;;;13.80;99.90;;;;;;4951040;29;20028;-78
2023/08/04 02:01:22;;;;;;;2.10;0.70;;;13.80;99.90;;;;;;4947813;29;20413;-79
2023/08/04 02:03:48;;;;;;;4.40;0.85;;;13.80;99.90;;;;;;4931475;29;20078;-78
2023/08/04 02:06:15;;;;;;;2.40;1.08;;;13.90;99.90;;;;;;4933050;29;20032;-79
2023/08/04 02:08:41;;;;;;;1.85;0.40;;;14.00;99.90;;;;;;4947493;29;20077;-78
2023/08/04 02:11:07;;;;;;;0.93;0.85;;;14.10;99.90;;;;;;4932787;29;20031;-79
2023/08/04 02:13:33;;;;;;;1.00;0.57;;;14.20;99.90;;;;;;4932974;29;20094;-81
2023/08/04 02:15:59;;;;;;;1.48;0.80;;;14.10;99.90;;;;;;4947202;29;20354;-78
2023/08/04 02:18:26;;;;;;;2.03;0.60;;;14.20;99.90;;;;;;4932025;29;20028;-78
2023/08/04 02:20:52;;;;;;;0.70;0.50;;;14.20;99.90;;;;;;4933140;29;20044;-79
2023/08/04 02:23:17;;;;;;;2.42;0.40;;;14.20;99.90;;;;;;4961576;28;20252;-79
2023/08/04 02:25:43;;;;;;;3.72;0.60;;;14.20;99.90;;;;;;4951706;28;20027;-79
2023/08/04 02:28:09;;;;;;;3.45;1.00;;;14.70;99.90;;;;;;4966546;28;20030;-80
2023/08/04 02:30:35;;;;;;;0.80;0.73;;;14.10;99.90;;;;;;4966113;28;20074;-79
2023/08/04 02:33:01;;;;;;;1.30;0.63;;;14.10;99.90;;;;;;4967577;28;20425;-79
2023/08/04 02:35:27;;;;;;;1.30;0.60;;;14.10;99.90;;;;;;4968400;28;20023;-79
2023/08/04 02:37:53;;;;;;;0.77;0.52;;;14.20;99.90;;;;;;4953549;28;20492;-78
2023/08/04 02:40:19;;;;;;;1.63;0.82;;;14.10;99.90;;;;;;4952090;28;20427;-78
2023/08/04 02:42:45;;;;;;;4.35;0.60;;;14.20;99.90;;;;;;4968832;28;20178;-78
2023/08/04 02:45:11;;;;;;;2.28;0.68;;;14.20;99.90;;;;;;4966059;28;20237;-78
2023/08/04 02:47:37;;;;;;;0.45;0.45;;;14.10;99.90;;;;;;4932024;29;20031;-78
2023/08/04 02:50:05;;;;;;;2.45;0.90;;;14.10;99.90;;;;;;4946436;29;20034;-79
2023/08/04 02:52:30;;;;;;;1.20;0.70;;;14.00;99.90;;;;;;4947297;29;20044;-79
2023/08/04 02:55:08;;;;;;;0.40;0.40;;;14.00;99.90;;;;;;4933888;29;20128;-78
2023/08/04 02:57:35;;;;;;;1.75;0.90;;;13.40;99.90;;;;;;4949841;29;20051;-78
2023/08/04 03:00:01;;;;;;;0.50;0.50;;;14.10;99.90;;;;;;4949807;29;20095;-78
2023/08/04 03:02:27;;;;;;;0.63;0.57;;;14.10;99.90;;;;;;4949424;29;20023;-77
2023/08/04 03:04:53;;;;;;;2.47;0.50;;;14.10;99.90;;;;;;4948400;28;20071;-79
2023/08/04 03:07:18;;;;;;;1.20;0.80;;;14.10;99.90;;;;;;4934216;29;20028;-77
2023/08/04 03:09:44;;;;;;;4.72;1.13;;;14.10;99.90;;;;;;4934658;29;20208;-79
2023/08/04 03:12:10;;;;;;;1.35;0.50;;;14.10;99.90;;;;;;4933051;29;20416;-78
2023/08/04 03:14:36;;;;;;;2.50;0.55;;;14.10;99.90;;;;;;4934144;29;20027;-78
2023/08/04 03:17:02;;;;;;;1.58;0.60;;;14.10;99.90;;;;;;4933373;29;20036;-77
2023/08/04 03:19:28;;;;;;;2.58;0.88;;;14.10;99.90;;;;;;4932589;29;20066;-76
2023/08/04 03:21:54;;;;;;;4.05;0.57;;;14.00;99.90;;;;;;4932875;29;20067;-78
2023/08/04 03:24:21;;;;;;;0.95;0.52;;;14.00;99.90;;;;;;4933954;29;20035;-77
2023/08/04 03:26:46;;;;;;;3.80;0.80;;;13.90;99.90;;;;;;4932118;29;20031;-77
2023/08/04 03:29:12;;;;;;;2.50;0.60;;;14.00;99.90;;;;;;4933140;29;20106;-78
2023/08/04 03:31:38;;;;;;;2.60;0.98;;;14.00;99.90;;;;;;4931403;28;20028;-78
2023/08/04 03:34:04;;;;;;;1.67;0.68;;;14.00;99.90;;;;;;4933316;29;20131;-76
2023/08/04 03:36:31;;;;;;;1.48;0.55;;;14.00;99.90;;;;;;4933950;29;20055;-77
2023/08/04 03:38:56;;;;;;;0.88;0.88;;;14.00;99.90;;;;;;4948311;29;20444;-78
2023/08/04 03:41:22;;;;;;;0.60;0.60;;;14.00;99.90;;;;;;4933563;29;20043;-77
2023/08/04 03:43:48;;;;;;;0.70;0.63;;;14.00;99.90;;;;;;4933861;29;20046;-77
2023/08/04 03:46:14;;;;;;;1.20;0.73;;;14.00;99.90;;;;;;4933018;29;20024;-76
2023/08/04 03:48:40;;;;;;;4.50;0.85;;;13.90;99.90;;;;;;4933549;29;20024;-77
2023/08/04 03:51:06;;;;;;;0.98;0.60;;;13.80;99.90;;;;;;4948071;29;20177;-77
2023/08/04 03:53:32;;;;;;;0.60;0.60;;;13.90;99.90;;;;;;4948516;29;20447;-77
2023/08/04 03:55:58;;;;;;;0.75;0.75;;;13.90;99.90;;;;;;4952118;29;20055;-78
2023/08/04 03:58:24;;;;;;;1.50;0.60;;;14.00;99.90;;;;;;4938516;28;20024;-77
2023/08/04 04:00:59;;;;;;;4.97;1.20;;;13.90;99.90;;;;;;4940990;28;20050;-79
2023/08/04 04:03:27;;;;;;;0.95;0.75;;;13.70;99.90;;;;;;4939002;29;20051;-79
2023/08/04 04:05:53;;;;;;;1.15;0.57;;;13.70;99.90;;;;;;4938706;29;20045;-78
2023/08/04 04:08:19;;;;;;;0.75;0.75;;;13.70;99.90;;;;;;4943146;29;20051;-76
2023/08/04 04:11:01;;;;;;;0.57;0.57;;;14.00;99.90;;;;;;4958256;28;20024;-80
2023/08/04 04:13:26;;;;;;;1.17;1.05;;;13.70;99.90;;;;;;4957291;28;20183;-77
2023/08/04 04:15:58;;;;;;;1.35;0.93;;;13.70;99.90;;;;;;4960945;28;20524;-80
2023/08/04 04:18:28;;;;;;;1.08;0.80;;;13.80;99.90;;;;;;4950118;29;20024;-77
2023/08/04 04:20:54;;;;;;;2.10;1.00;;;13.80;99.90;;;;;;4932447;29;20203;-78
2023/08/04 04:23:20;;;;;;;1.92;0.90;;;13.80;99.90;;;;;;4930671;29;20028;-78
2023/08/04 04:25:56;;;;;;;0.68;0.68;;;13.90;99.90;;;;;;4946656;28;20031;-79
2023/08/04 04:28:21;;;;;;;0.90;0.60;;;13.90;99.90;;;;;;4946117;28;20024;-78
2023/08/04 04:30:48;;;;;;;0.85;0.70;;;14.00;99.90;;;;;;4931491;29;20023;-78
2023/08/04 04:33:14;;;;;;;1.00;0.65;;;14.00;99.90;;;;;;4946601;28;20044;-78
2023/08/04 04:35:49;;;;;;;1.02;0.55;;;14.10;99.90;;;;;;4933865;29;20495;-80
2023/08/04 04:38:18;;;;;;;1.40;1.00;;;14.10;99.90;;;;;;4948814;28;20051;-77
2023/08/04 04:40:44;;;;;;;0.50;0.50;;;14.20;99.90;;;;;;4933818;29;20063;-77
2023/08/04 04:43:10;;;;;;;2.40;0.60;;;14.20;99.90;;;;;;4933091;29;20027;-78
2023/08/04 04:45:36;;;;;;;0.40;0.40;;;14.30;99.90;;;;;;4934166;29;20047;-77
2023/08/04 04:48:01;;;;;;;1.70;0.70;;;14.30;99.90;;;;;;4932164;29;20020;-77
2023/08/04 04:50:27;;;;;;;0.63;0.63;;;14.30;99.90;;;;;;4933898;29;20039;-79
2023/08/04 04:52:53;;;;;;;0.40;0.40;;;14.40;99.90;;;;;;4935704;29;20059;-77
2023/08/04 04:55:18;;;;;;;0.75;0.50;;;14.40;99.90;;;;;;4933459;29;20035;-79
2023/08/04 04:57:44;;;;;;;2.65;0.75;;;14.40;99.90;;;;;;4932485;29;20567;-77
2023/08/04 05:00:11;;;;;;;0.98;0.60;;;14.50;99.90;;;;;;4939271;29;20036;-78
2023/08/04 05:02:37;;;;;;;1.33;0.50;;;14.60;99.90;;;;;;4941684;29;20201;-78
2023/08/04 05:05:03;;;;;;;0.85;0.57;;;14.60;99.90;;;;;;4939535;29;20357;-79
2023/08/04 05:07:29;;;;;;;0.43;0.43;;;14.70;99.90;;;;;;4932742;29;20086;-78
2023/08/04 05:09:55;;;;;;;0.75;0.70;;;14.70;99.90;;;;;;4932435;29;20528;-78
2023/08/04 05:12:21;;;;;;;2.85;1.17;;;14.70;99.90;;;;;;4930147;29;20099;-79
2023/08/04 05:14:47;;;;;;;0.50;0.50;;;14.90;99.90;;;;;;4929442;29;20123;-77
2023/08/04 05:17:13;;;;;;;0.70;0.40;;;15.10;99.90;;;;;;4929718;29;20111;-77
2023/08/04 05:19:38;;;;;;;0.38;0.38;;;15.30;99.90;;;;;;4929603;29;20461;-77
2023/08/04 05:22:07;;;;;;;2.38;0.90;;;15.50;99.90;;;;;;4929673;29;20051;-78
2023/08/04 05:24:32;;;;;;;0.33;0.33;;;16.00;99.90;;;;;;4929641;28;20035;-78
2023/08/04 05:26:58;;;;;;;0.80;0.70;;;15.80;99.90;;;;;;4946595;29;20268;-77
2023/08/04 05:29:24;;;;;;;2.00;0.63;;;16.00;99.90;;;;;;4932871;29;20373;-75
2023/08/04 05:31:49;;;;;;;0.50;0.50;;;16.10;99.90;;;;;;4931488;29;20489;-76
2023/08/04 05:34:15;;;;;;;0.40;0.40;;;16.20;99.90;;;;;;4931262;29;20500;-76
2023/08/04 05:36:40;;;;;;;0.20;0.20;;;16.20;99.90;;;;;;4931339;29;20024;-76
2023/08/04 05:39:06;;;;;;;1.27;0.73;;;16.20;99.90;;;;;;4929892;29;20131;-76
2023/08/04 05:41:32;;;;;;;0.88;0.40;;;16.40;99.90;;;;;;4931455;29;20043;-76
2023/08/04 05:43:57;;;;;;;5.00;0.93;;;16.40;99.90;;;;;;4931387;29;20032;-77
2023/08/04 05:46:23;;;;;;;0.98;0.60;;;16.40;99.90;;;;;;4931027;29;20031;-77
2023/08/04 05:48:49;;;;;;;1.60;0.30;;;16.40;99.90;;;;;;4931372;29;20039;-77
2023/08/04 05:51:15;;;;;;;2.78;0.35;;;16.30;99.90;;;;;;4931270;29;20135;-77
2023/08/04 05:53:41;;;;;;;0.57;0.55;;;16.30;99.90;;;;;;4929300;29;20604;-76
2023/08/04 05:56:07;;;;;;;0.43;0.40;;;16.30;99.90;;;;;;4929556;29;20196;-77
2023/08/04 05:58:32;;;;;;;1.20;0.55;;;16.30;99.90;;;;;;4930972;29;20168;-76
2023/08/04 06:00:58;;;;;;;0.55;0.55;;;16.40;99.90;;;;;;4930765;29;20079;-77
2023/08/04 06:03:24;;;;;;;1.15;0.90;;;16.30;99.90;;;;;;4931265;29;20101;-76
2023/08/04 06:05:49;;;;;;;2.22;0.90;;;16.20;99.90;;;;;;4930675;29;20499;-77
2023/08/04 06:08:15;;;;;;;1.20;0.55;;;16.30;99.90;;;;;;4932110;29;20032;-76
2023/08/04 06:10:41;;;;;;;0.65;0.65;;;16.30;99.90;;;;;;4931870;29;20055;-76
2023/08/04 06:13:06;;;;;;;0.68;0.40;;;16.20;99.90;;;;;;4930903;29;20034;-78
2023/08/04 06:15:32;;;;;;;4.68;1.48;;;16.30;99.90;;;;;;4931202;28;20420;-77
2023/08/04 06:17:57;;;;;;;2.28;0.68;;;16.30;99.90;;;;;;4931210;29;20075;-77
2023/08/04 06:20:23;;;;;;;0.70;0.40;;;16.40;99.90;;;;;;4930004;29;20396;-76
2023/08/04 06:22:49;;;;;;;1.13;0.50;;;16.50;99.90;;;;;;4929110;28;20110;-77
2023/08/04 06:25:15;;;;;;;2.58;2.35;;;16.70;99.90;;;;;;4931266;29;20503;-76
2023/08/04 06:27:41;;;;;;;0.50;0.50;;;16.80;99.90;;;;;;4931204;29;20040;-78
2023/08/04 06:30:07;;;;;;;3.67;0.63;;;16.90;99.90;;;;;;4930562;29;20613;-77
2023/08/04 06:32:33;;;;;;;6.03;0.65;;;17.00;99.90;;;;;;4945598;29;20035;-77
2023/08/04 06:34:59;;;;;;;2.38;0.68;;;17.10;99.90;;;;;;4930845;29;20024;-77
2023/08/04 06:37:25;;;;;;;1.15;0.63;;;17.10;99.90;;;;;;4931061;29;20036;-78
2023/08/04 06:39:51;;;;;;;1.75;0.47;;;17.30;99.90;;;;;;4945583;29;20032;-76
2023/08/04 06:42:18;;;;;;;0.77;0.77;;;17.20;99.90;;;;;;4929620;29;20051;-76
2023/08/04 06:44:45;;;;;;;0.63;0.40;;;17.20;99.90;;;;;;4930443;29;20251;-77
2023/08/04 06:47:11;;;;;;;0.82;0.40;;;17.50;99.90;;;;;;4930865;29;20095;-77
2023/08/04 06:49:37;;;;;;;3.72;1.33;;;17.60;99.90;;;;;;4930724;29;20024;-77
2023/08/04 06:52:03;;;;;;;2.70;1.25;;;17.80;99.90;;;;;;4930826;29;20028;-77
2023/08/04 06:54:29;;;;;;;0.50;0.40;;;17.90;99.90;;;;;;4945141;29;20055;-78
2023/08/04 06:56:55;;;;;;;0.75;0.60;;;17.70;99.90;;;;;;4930282;29;20055;-77
2023/08/04 06:59:21;;;;;;;0.85;0.65;;;17.70;99.90;;;;;;4930347;29;20508;-77
2023/08/04 07:01:46;;;;;;;2.60;1.70;;;17.70;99.90;;;;;;4929587;29;20059;-77
2023/08/04 07:04:12;;;;;;;2.05;1.08;;;17.80;99.90;;;;;;4930071;29;20032;-77
2023/08/04 07:06:38;;;;;;;3.60;1.05;;;17.90;99.90;;;;;;4928859;29;20031;-77
2023/08/04 07:09:03;;;;;;;0.82;0.45;;;18.00;99.90;;;;;;4929839;29;20075;-78
2023/08/04 07:11:29;;;;;;;0.22;0.22;;;18.00;99.90;;;;;;4928733;29;20035;-78
2023/08/04 07:13:54;;;;;;;0.52;0.52;;;18.10;99.90;;;;;;4931225;29;20024;-77
2023/08/04 07:16:21;;;;;;;1.98;0.43;;;18.00;99.90;;;;;;4931385;29;20437;-77
2023/08/04 07:18:47;;;;;;;0.20;0.20;;;17.80;99.90;;;;;;4931454;29;20023;-76
2023/08/04 07:21:13;;;;;;;0.20;0.20;;;17.70;99.90;;;;;;4926770;29;20043;-77
2023/08/04 07:23:40;;;;;;;0.52;0.28;;;17.70;99.90;;;;;;4922856;29;20028;-77
2023/08/04 07:26:07;;;;;;;0.73;0.60;;;17.80;99.90;;;;;;4930696;29;20027;-77
2023/08/04 07:28:33;;;;;;;0.45;0.30;;;17.70;99.90;;;;;;4929988;29;20020;-77
2023/08/04 07:31:07;;;;;;;3.17;0.40;;;17.80;99.90;;;;;;4930331;29;20404;-76
2023/08/04 07:33:33;;;;;;;4.68;0.80;;;17.60;99.90;;;;;;4945965;28;20034;-79
2023/08/04 07:35:59;;;;;;;0.45;0.40;;;17.60;99.90;;;;;;4949019;28;20027;-77
2023/08/04 07:38:27;;;;;;;0.40;0.40;;;17.80;99.90;;;;;;4948447;29;20035;-77
2023/08/04 07:40:52;;;;;;;0.50;0.50;;;18.20;99.90;;;;;;4921182;29;20036;-78
2023/08/04 07:43:18;;;;;;;3.50;0.60;;;18.30;99.90;;;;;;4933825;29;20392;-77
2023/08/04 07:45:44;;;;;;;3.50;0.95;;;18.60;99.90;;;;;;4933308;29;20032;-77
2023/08/04 07:48:10;;;;;;;1.02;0.80;;;18.80;99.90;;;;;;4934511;29;20032;-77
2023/08/04 07:50:40;;;;;;;1.40;0.40;;;19.10;99.90;;;;;;4933259;29;20035;-77
2023/08/04 07:53:05;;;;;;;0.30;0.30;;;19.40;99.90;;;;;;4931723;28;20032;-79
2023/08/04 07:55:36;;;;;;;2.00;0.35;;;19.60;99.90;;;;;;4932894;29;20047;-77
2023/08/04 07:58:02;;;;;;;2.67;0.50;;;19.70;99.90;;;;;;4931920;29;20040;-79
2023/08/04 08:00:28;;;;;;;0.30;0.30;;;19.90;99.90;;;;;;4932527;29;20046;-78
2023/08/04 08:02:54;;;;;;;3.42;0.28;;;20.30;99.90;;;;;;4931753;29;20435;-77
2023/08/04 08:05:19;;;;;;;1.48;0.65;;;20.40;99.90;;;;;;4933066;29;20547;-77
2023/08/04 08:07:45;;;;;;;0.35;0.30;;;20.70;99.90;;;;;;4933708;29;20284;-78
2023/08/04 08:10:10;;;;;;;0.20;0.20;;;21.20;99.90;;;;;;4932072;29;20059;-79
2023/08/04 08:12:36;;;;;;;0.77;0.35;;;21.30;99.90;;;;;;4933675;29;20484;-78
2023/08/04 08:15:05;;;;;;;2.08;1.10;;;22.10;99.90;;;;;;4932653;29;20388;-80
2023/08/04 08:17:31;;;;;;;0.23;0.23;;;22.80;99.90;;;;;;4933398;29;20601;-80
2023/08/04 08:19:57;;;;;;;0.20;0.20;;;22.60;99.90;;;;;;4933044;29;20016;-80
2023/08/04 08:22:22;;;;;;;1.67;0.40;;;21.90;99.90;;;;;;4932776;29;20057;-80
2023/08/04 08:24:53;;;;;;;0.25;0.10;;;21.20;99.90;;;;;;4932645;29;20058;-78
2023/08/04 08:27:18;;;;;;;0.28;0.28;;;20.70;99.90;;;;;;4932737;29;20551;-78
2023/08/04 08:29:44;;;;;;;0.32;0.20;;;20.40;99.90;;;;;;4933168;29;20027;-78
2023/08/04 08:32:09;;;;;;;1.02;0.32;;;20.20;99.90;;;;;;4932790;29;20114;-78
2023/08/04 08:34:35;;;;;;;0.65;0.40;;;20.50;99.90;;;;;;4932315;29;20163;-77
2023/08/04 08:37:02;;;;;;;0.38;0.30;;;22.00;99.90;;;;;;4932510;29;20074;-76
2023/08/04 08:39:29;;;;;;;0.50;0.50;;;23.40;98.30;;;;;;4928008;29;20139;-78
2023/08/04 08:41:57;;;;;;;1.25;0.22;;;24.30;95.40;;;;;;4912785;29;20032;-77
2023/08/04 08:44:23;;;;;;;0.22;0.22;;;24.60;94.00;;;;;;4911470;29;20024;-76
2023/08/04 08:46:49;;;;;;;1.02;0.22;;;24.50;92.30;;;;;;4912149;29;20043;-76
2023/08/04 08:49:15;;;;;;;0.55;0.30;;;24.60;91.00;;;;;;4923602;29;20050;-78
2023/08/04 08:51:48;;;;;;;0.47;0.20;;;23.90;90.10;;;;;;4930601;29;20516;-78
2023/08/04 08:54:15;;;;;;;0.52;0.35;;;22.70;92.20;;;;;;4930054;29;20027;-76
2023/08/04 08:56:42;;;;;;;0.20;0.10;;;21.70;94.20;;;;;;4931412;29;20484;-76
2023/08/04 08:59:08;;;;;;;0.20;0.20;;;21.40;95.40;;;;;;4929286;29;20087;-77
2023/08/04 09:01:34;;;;;;;0.20;0.20;;;21.10;96.90;;;;;;4931825;29;20040;-77
2023/08/04 09:04:00;;;;;;;9.52;0.55;;;21.10;96.50;;;;;;4932327;29;20048;-77
2023/08/04 09:06:26;;;;;;;0.10;0.10;;;20.50;98.30;;;;;;4933148;29;20031;-76
2023/08/04 09:08:54;;;;;;;0.10;0.10;;;20.30;99.20;;;;;;4931273;29;20024;-76
2023/08/04 09:11:20;;;;;;;1.23;0.47;;;19.60;99.90;;;;;;4932612;29;20031;-75
2023/08/04 09:13:46;;;;;;;0.35;0.10;;;19.40;99.90;;;;;;4944233;29;20023;-76
2023/08/04 09:16:12;;;;;;;0.20;0.20;;;19.50;99.90;;;;;;4935446;29;20106;-76
2023/08/04 09:18:42;;;;;;;0.30;0.30;;;19.40;99.90;;;;;;4937605;29;20049;-77
2023/08/04 09:21:08;;;;;;;3.30;0.20;;;19.50;99.90;;;;;;4928127;29;20039;-77
2023/08/04 09:23:50;;;;;;;0.10;0.10;;;19.70;99.90;;;;;;4932340;29;20016;-76
2023/08/04 09:26:16;;;;;;;0.10;0.10;;;19.90;99.90;;;;;;4931649;29;20032;-78
2023/08/04 09:28:42;;;;;;;0.20;0.15;;;19.90;99.90;;;;;;4928481;29;20452;-78
2023/08/04 09:31:10;;;;;;;1.55;0.52;;;20.10;99.90;;;;;;4929584;29;20539;-77
2023/08/04 09:33:43;;;;;;;0.25;0.10;;;20.30;99.90;;;;;;4929548;29;20516;-75
2023/08/04 09:36:16;;;;;;;0.60;0.20;;;20.60;99.60;;;;;;4927369;29;20523;-78
2023/08/04 09:38:42;;;;;;;0.20;0.20;;;20.90;99.90;;;;;;4932937;29;20391;-76
2023/08/04 09:41:10;;;;;;;0.82;0.47;;;21.50;99.90;;;;;;4940842;29;20191;-76
2023/08/04 09:43:46;;;;;;;0.22;0.20;;;22.30;96.80;;;;;;4931746;29;20023;-76
2023/08/04 09:46:12;;;;;;;1.52;0.10;;;23.40;95.50;;;;;;4941043;29;20050;-76
2023/08/04 09:48:38;;;;;;;2.08;0.35;;;22.60;93.20;;;;;;4956930;29;20091;-77
2023/08/04 09:51:08;;;;;;;0.10;0.10;;;22.00;94.60;;;;;;4941374;29;20388;-77
2023/08/04 09:53:45;;;;;;;0.40;0.20;;;21.70;97.10;;;;;;4939309;29;20032;-77
2023/08/04 09:56:13;;;;;;;0.10;0.10;;;21.60;96.10;;;;;;4955742;29;20051;-77
2023/08/04 09:58:39;;;;;;;1.80;0.30;;;22.30;95.60;;;;;;4940210;28;20028;-77
2023/08/04 10:01:05;;;;;;;0.10;0.10;;;22.60;93.80;;;;;;4940869;29;20219;-77
2023/08/04 10:03:37;;;;;;;0.68;0.17;;;22.50;94.00;;;;;;4941458;29;20031;-77
2023/08/04 10:06:03;;;;;;;0.65;0.10;;;21.90;93.40;;;;;;4942157;29;20035;-77
2023/08/04 10:08:36;;;;;;;3.60;0.75;;;21.40;94.00;;;;;;4941385;29;20023;-77
2023/08/04 10:11:02;;;;;;;0.20;0.20;;;21.10;94.10;;;;;;4940828;29;20027;-77
2023/08/04 10:13:37;;;;;;;0.10;0.10;;;21.00;94.80;;;;;;4941265;29;20047;-77
2023/08/04 10:16:12;;;;;;;0.88;0.47;;;21.20;95.70;;;;;;4945339;28;20024;-75
2023/08/04 10:19:00;;;;;;;0.10;0.10;;;20.90;93.60;;;;;;4939327;29;20285;-78
2023/08/04 10:21:28;;;;;;;0.50;0.20;;;21.00;94.40;;;;;;4931402;29;20048;-75
2023/08/04 10:23:54;;;;;;;0.43;0.17;;;21.10;94.50;;;;;;4938293;29;20350;-76
2023/08/04 10:26:20;;;;;;;0.10;0.10;;;21.20;94.90;;;;;;4938828;29;20028;-76
2023/08/04 10:29:05;;;;;;;0.25;0.17;;;21.40;94.20;;;;;;4939574;29;20319;-77
2023/08/04 10:31:51;;;;;;;0.60;0.20;;;21.50;94.40;;;;;;4936075;29;20117;-76
2023/08/04 10:34:28;;;;;;;0.15;0.15;;;21.80;94.30;;;;;;4931563;29;20043;-78
2023/08/04 10:37:18;;;;;;;1.25;0.10;;;22.30;92.60;;;;;;4930745;29;20028;-76
2023/08/04 10:39:55;;;;;;;0.25;0.10;;;23.00;90.90;;;;;;4930066;29;20038;-76
2023/08/04 10:42:29;;;;;;;0.10;0.08;;;23.70;91.40;;;;;;4930598;29;20199;-75
2023/08/04 10:45:06;;;;;;;1.75;0.30;;;24.10;88.80;;;;;;4944137;29;20042;-76
2023/08/04 10:47:52;;;;;;;0.10;0.10;;;24.50;83.80;;;;;;4929596;29;20032;-78
2023/08/04 10:50:18;;;;;;;0.10;0.00;;;24.40;86.60;;;;;;4929366;29;20035;-77
2023/08/04 10:52:43;;;;;;;0.20;0.20;;;24.70;83.40;;;;;;4930154;29;20364;-76
2023/08/04 10:55:13;;;;;;;0.00;0.00;;;24.00;84.10;;;;;;4928371;29;20024;-76
2023/08/04 10:57:42;;;;;;;0.13;0.13;;;23.70;84.80;;;;;;4929391;29;20044;-76
2023/08/04 11:00:10;;;;;;;0.93;0.45;;;23.00;86.90;;;;;;4934708;29;20031;-76
2023/08/04 11:02:37;;;;;;;0.65;0.10;;;22.70;88.20;;;;;;4936557;29;20295;-77
2023/08/04 11:05:06;;;;;;;0.10;0.10;;;22.20;87.40;;;;;;4949158;29;20067;-76
2023/08/04 11:07:32;;;;;;;0.00;0.00;;;22.20;90.30;;;;;;4933407;28;20043;-75
2023/08/04 11:10:06;;;;;;;0.10;0.10;;;22.00;90.70;;;;;;4942348;29;20046;-75
2023/08/04 11:12:36;;;;;;;0.20;0.10;;;22.30;87.70;;;;;;4938541;29;20024;-75
2023/08/04 11:15:02;;;;;;;1.17;0.08;;;22.30;86.00;;;;;;4940187;29;20050;-76
2023/08/04 11:17:27;;;;;;;0.10;0.10;;;22.70;84.60;;;;;;4951105;29;20040;-78
2023/08/04 11:19:53;;;;;;;0.10;0.10;;;22.70;90.00;;;;;;4936798;29;20082;-75
2023/08/04 11:22:24;;;;;;;0.10;0.10;;;23.00;91.00;;;;;;4941754;29;20044;-77
2023/08/04 11:24:51;;;;;;;3.47;0.25;;;22.60;90.70;;;;;;4937292;29;20036;-75
2023/08/04 11:27:17;;;;;;;0.13;0.13;;;22.60;91.70;;;;;;4927098;29;20083;-78
2023/08/04 11:29:43;;;;;;;0.22;0.20;;;21.80;91.20;;;;;;4933138;29;20027;-76
2023/08/04 11:32:17;;;;;;;0.65;0.10;;;21.60;92.30;;;;;;4931375;29;20518;-76
2023/08/04 11:34:42;;;;;;;0.10;0.10;;;21.60;91.30;;;;;;4936258;29;20047;-76
2023/08/04 11:37:08;;;;;;;0.20;0.05;;;21.70;91.10;;;;;;4940959;29;20057;-75
2023/08/04 11:39:35;;;;;;;0.17;0.17;;;22.00;91.30;;;;;;4937822;29;20235;-74
2023/08/04 11:42:02;;;;;;;0.20;0.20;;;22.90;92.20;;;;;;4935726;29;20068;-75
2023/08/04 11:44:28;;;;;;;0.32;0.10;;;23.60;90.50;;;;;;4929500;29;20543;-77
2023/08/04 11:46:54;;;;;;;0.00;0.00;;;22.90;91.10;;;;;;4939627;29;20031;-77
2023/08/04 11:49:20;;;;;;;0.20;0.20;;;21.80;92.90;;;;;;4937986;29;20028;-77
2023/08/04 11:51:46;;;;;;;0.35;0.20;;;20.80;94.90;;;;;;4930598;29;20028;-78
2023/08/04 11:54:21;;;;;;;0.20;0.20;;;20.80;96.40;;;;;;4930795;29;20197;-75
2023/08/04 11:56:58;;;;;;;0.43;0.22;;;20.90;96.20;;;;;;4930342;29;20051;-77
2023/08/04 11:59:25;;;;;;;0.15;0.13;;;20.30;95.90;;;;;;4930144;29;20027;-74
2023/08/04 12:02:08;;;;;;;1.77;0.22;;;20.20;96.60;;;;;;4936462;29;20075;-74
2023/08/04 12:04:34;;;;;;;0.00;0.00;;;20.20;97.10;;;;;;4932708;29;20083;-75
2023/08/04 12:07:01;;;;;;;0.00;0.00;;;19.90;97.60;;;;;;4936816;29;20215;-74
2023/08/04 12:09:27;;;;;;;1.65;0.32;;;20.00;98.00;;;;;;4934906;29;20051;-75
2023/08/04 12:11:53;;;;;;;0.10;0.10;;;21.30;97.70;;;;;;4941447;29;20502;-75
2023/08/04 12:14:22;;;;;;;0.52;0.20;;;21.10;96.90;;;;;;4939272;29;20252;-75
2023/08/04 12:17:00;;;;;;;0.32;0.32;;;21.50;96.50;;;;;;4940889;29;20247;-75
2023/08/04 12:19:27;;;;;;;0.00;0.00;;;22.00;95.30;;;;;;4937274;29;20371;-76
2023/08/04 12:21:56;;;;;;;0.10;0.10;;;22.60;94.20;;;;;;4938305;29;20039;-75
2023/08/04 12:24:21;;;;;;;0.10;0.10;;;24.00;92.90;;;;;;4956687;28;20043;-78
2023/08/04 12:26:47;;;;;;;0.00;0.00;;;24.80;91.20;;;;;;4942048;29;20027;-77
2023/08/04 12:29:13;;;;;;;0.00;0.00;;;24.70;90.30;;;;;;4942255;29;20320;-76
2023/08/04 12:31:39;;;;;;;0.00;0.00;;;22.90;90.40;;;;;;4956809;28;20016;-76
2023/08/04 12:34:06;;;;;;;0.63;0.57;;;21.20;94.00;;;;;;4951844;29;20036;-76
2023/08/04 12:36:33;;;;;;;0.30;0.10;;;20.90;97.40;;;;;;4939696;29;20031;-75
2023/08/04 12:38:58;;;;;;;0.00;0.00;;;20.00;99.00;;;;;;4938861;29;20115;-75
2023/08/04 12:41:24;;;;;;;0.30;0.00;;;19.90;99.90;;;;;;4931298;29;20107;-76
2023/08/04 12:43:50;;;;;;;0.22;0.08;;;19.70;99.90;;;;;;4933818;29;20051;-75
2023/08/04 12:46:16;;;;;;;0.00;0.00;;;19.50;99.10;;;;;;4928915;29;20065;-77
2023/08/04 12:48:41;;;;;;;0.00;0.00;;;19.20;99.50;;;;;;4929609;29;20031;-74